• Join FlightAware (Why Join?)
  • Login
  • US Flag 
12:46AM EDT


 

Airport Tracker/Info


-or-


 

Live Flight TrackerFlight Track Log ✈ N322MS ✈ 04-May-2012 ✈ KMYR - KISM

Flight Track Log - Related Links

Times and Time Zones

All times are in EDT time to prevent confusion due to time zone crossing. See the N322MS flight status page for this flight to view local times or setup timezone preferences in your user account.

Time Position Orientation Groundspeed Altitude Reporting Facility
EDT Latitude Longitude Course Direction KTS MPH feet Rate Location/Type
04:06PM 33.6375 -78.9701 224° Southwest  Level FlightAware Approximate
04:07PM 33.6037 -79.0035 224° Southwest  Level FlightAware Approximate
04:08PM 33.5699 -79.0369 224° Southwest  Level FlightAware Approximate
04:09PM 33.5500 -79.0833 224° Southwest  Level FlightAware Approximate
04:10PM 33.5160 -79.1165 224° Southwest  Level FlightAware Approximate
04:11PM 33.4981 -79.1611 223° Southwest  Level FlightAware Approximate
04:12PM 33.4679 -79.1988 223° Southwest  Level FlightAware Approximate
04:13PM 33.4332 -79.2307 223° Southwest  Level FlightAware Approximate
04:14PM 33.3985 -79.2626 224° Southwest  Level FlightAware Approximate
04:15PM 33.3638 -79.2945 224° Southwest  Level FlightAware Approximate
04:16PM 33.3290 -79.3264 224° Southwest  Level FlightAware Approximate
04:17PM 33.2923 -79.3550 224° Southwest  Level FlightAware Approximate
04:18PM 33.2556 -79.3835 224° Southwest  Level FlightAware Approximate
04:19PM 33.2172 -79.4085 225° Southwest  Level FlightAware Approximate
04:20PM 33.1787 -79.4335 225° Southwest  Level FlightAware Approximate
04:21PM 33.1402 -79.4584 225° Southwest  Level FlightAware Approximate
04:22PM 33.1018 -79.4834 226° Southwest  Level FlightAware Approximate
04:23PM 33.0633 -79.5083 226° Southwest  Level FlightAware Approximate
04:24PM 33.0248 -79.5332 226° Southwest  Level FlightAware Approximate
04:25PM 32.9863 -79.5580 227° Southwest  Level FlightAware Approximate
04:26PM 32.9478 -79.5829 227° Southwest  Level FlightAware Approximate
04:27PM 32.9094 -79.6077 228° Southwest  Level FlightAware Approximate
04:28PM 32.8708 -79.6325 228° Southwest  Level FlightAware Approximate
04:29PM 32.8324 -79.6573 229° Southwest  Level FlightAware Approximate
04:30PM 32.7938 -79.6820 229° Southwest  Level FlightAware Approximate
04:31PM 32.7553 -79.7068 230° Southwest  Level FlightAware Approximate
04:32PM 32.7156 -79.7287 231° Southwest  Level FlightAware Approximate
04:33PM 32.6759 -79.7505 231° Southwest  Level FlightAware Approximate
04:34PM 32.6362 -79.7724 232° Southwest  Level FlightAware Approximate
04:35PM 32.5965 -79.7942 233° Southwest  Level FlightAware Approximate
04:36PM 32.5567 -79.8160 234° Southwest  Level FlightAware Approximate
04:37PM 32.5164 -79.8363 235° Southwest  Level FlightAware Approximate
04:38PM 32.4762 -79.8566 236° Southwest  Level FlightAware Approximate
04:39PM 32.4359 -79.8769 237° Southwest  Level FlightAware Approximate
04:40PM 32.3951 -79.8959 238° Southwest  Level FlightAware Approximate
04:41PM 32.3544 -79.9149 239° Southwest  Level FlightAware Approximate
04:42PM 32.3137 -79.9339 241° Southwest  Level FlightAware Approximate
04:43PM 32.2729 -79.9529 242° Southwest  Level FlightAware Approximate
04:44PM 32.2320 -79.9712 244° Southwest  Level FlightAware Approximate
04:45PM 32.1911 -79.9895 246° West  Level FlightAware Approximate
04:46PM 32.1500 -80.0074 247° West  Level FlightAware Approximate
04:47PM 32.1087 -80.0246 249° West  Level FlightAware Approximate
04:48PM 32.0675 -80.0417 251° West  Level FlightAware Approximate
04:49PM 32.0258 -80.0577 254° West  Level FlightAware Approximate
04:50PM 31.9841 -80.0735 256° West  Level FlightAware Approximate
04:51PM 31.9425 -80.0893 259° West  Level FlightAware Approximate
04:52PM 31.9008 -80.1051 261° West  Level FlightAware Approximate
04:53PM 31.8591 -80.1209 264° West  Level FlightAware Approximate
04:54PM 31.8175 -80.1367 267° West  Level FlightAware Approximate
04:55PM 31.7758 -80.1524 270° West  Level FlightAware Approximate
04:56PM 31.7358 -80.1675 273° West  Level FlightAware Approximate
04:57PM 31.6958 -80.1826 276° West  Level FlightAware Approximate
04:58PM 31.6558 -80.1977 279° West  Level FlightAware Approximate
04:59PM 31.6158 -80.2128 282° West  Level FlightAware Approximate
05:00PM 31.5758 -80.2278 285° West  Level FlightAware Approximate
05:01PM 31.5358 -80.2429 289° West  Level FlightAware Approximate
05:02PM 31.4958 -80.2579 292° West  Level FlightAware Approximate
05:03PM 31.4557 -80.2729 295° West  Level FlightAware Approximate
05:04PM 31.4157 -80.2879 298° West  Level FlightAware Approximate
05:05PM 31.3757 -80.3029 301° West  Level FlightAware Approximate
05:06PM 31.3357 -80.3179 304° West  Level FlightAware Approximate
05:07PM 31.2957 -80.3328 307° West  Level FlightAware Approximate
05:08PM 31.7692 -81.0719 195° South 166 191 8,000  Level Jacksonville Center
05:09PM 31.7278 -81.0850 196° South 176 203 8,000  Level Jacksonville Center
05:10PM 31.6883 -81.0981 194° South 175 201 8,000  Level Jacksonville Center
05:11PM 31.6425 -81.1111 195° South 169 194 8,000  Level Jacksonville Center
05:12PM 31.5947 -81.1267 193° South 169 194 8,000  Level Jacksonville Center
05:13PM 31.5469 -81.1397 197° South 163 188 8,000  Level Jacksonville Center
05:14PM 31.5033 -81.1553 192° South 163 188 8,000  Level Jacksonville Center
05:15PM 31.4617 -81.1658 197° South 168 193 8,000  Level Jacksonville Center
05:16PM 31.4117 -81.1836 194° South 168 193 8,000  Level Jacksonville Center
05:17PM 31.3661 -81.1967 194° South 163 188 8,000  Level Jacksonville Center
05:18PM 31.3222 -81.2097 195° South 163 188 8,000  Level Jacksonville Center
05:19PM 31.2808 -81.2225 178° South 163 188 8,000  Level Jacksonville Center
05:20PM 31.2347 -81.2208 176° South 169 194 8,000  Level Jacksonville Center
05:21PM 31.1825 -81.2169 179° South 169 194 8,000  Level Jacksonville Center
05:22PM 31.1367 -81.2156 176° South 174 200 8,000  Level Jacksonville Center
05:23PM 31.0886 -81.2114 178° South 174 200 8,000  Level Jacksonville Center
05:24PM 31.0383 -81.2097 176° South 183 211 8,000  Level Jacksonville Center
05:25PM 30.9903 -81.2058 179° South 176 203 8,000  Level Jacksonville Center
05:26PM 30.9422 -81.2044 176° South 176 203 8,000  Level Jacksonville Center
05:27PM 30.8961 -81.2003 178° South 176 203 8,000  Level Jacksonville Center
05:28PM 30.8503 -81.1986 176° South 176 203 8,000  Level Jacksonville Center
05:29PM 30.8003 -81.1947 181° South 176 203 8,000  Level Jacksonville Center
05:30PM 30.7606 -81.1956 176° South 170 196 8,000  Level Jacksonville Center
05:31PM 30.7125 -81.1914 179° South 168 193 8,000  Level Jacksonville Center
05:32PM 30.6644 -81.1900 176° South 169 194 8,000  Level Jacksonville Center
05:33PM 30.6142 -81.1861 178° South 176 203 8,000  Level Jacksonville Center
05:34PM 30.5642 -81.1844 176° South 176 203 8,000  Level Jacksonville Center
05:35PM 30.5181 -81.1806 176° South 176 203 8,000  Level Jacksonville Center
05:36PM 30.4700 -81.1764 179° South 176 203 8,000  Level Jacksonville Center
05:37PM 30.4242 -81.1750 178° South 176 203 8,000  Level Jacksonville Center
05:38PM 30.3739 -81.1733 179° South 176 203 8,000  Level Jacksonville Center
05:39PM 30.3258 -81.1719 175° South 176 203 8,000  Level Jacksonville Center
05:40PM 30.2672 -81.1658 178° South 173 199 8,000  Level Jacksonville Center
05:41PM 30.2236 -81.1642 179° South 171 197 8,000  Level Jacksonville Center
05:42PM 30.1692 -81.1628 178° South 172 198 8,000  Level Jacksonville Center
05:43PM 30.1211 -81.1611 176° South 171 197 8,000  Level Jacksonville Center
05:44PM 30.0772 -81.1572 179° South 170 196 8,000  Level Jacksonville Center
05:45PM 30.0189 -81.1558 176° South 171 197 8,000  Level Jacksonville Center
05:46PM 29.9958 -81.1539 177° South 170 196 8,000  Level Jacksonville Center
05:47PM 29.9331 -81.1500 177° South 172 198 8,000  Level Jacksonville Center
05:48PM 29.8808 -81.1464 178° South 173 199 8,000  Level Jacksonville Center
05:49PM 29.8328 -81.1447 176° South 174 200 8,000  Level Jacksonville Center
05:50PM 29.7847 -81.1408 191° South 173 199 8,000  Level Jacksonville Center
05:51PM 29.7369 -81.1514 189° South 174 200 8,000  Level Jacksonville Center
05:52PM 29.6828 -81.1617 191° South 173 199 8,000  Level Jacksonville Center
05:53PM 29.6369 -81.1722 188° South 173 199 8,000  Level Jacksonville Center
05:54PM 29.5892 -81.1803 191° South 171 197 8,000 -120 Level Jacksonville Center
05:55PM 29.5411 -81.1906 190° South 173 199 7,800 -540 Descending Jacksonville Center
05:56PM 29.4911 -81.2008 189° South 188 216 7,000 -780 Descending Jacksonville Center
05:57PM 29.4328 -81.2114 190° South 188 216 6,300 -540 Descending Jacksonville Center
05:58PM 29.3831 -81.2219 192° South 182 209 6,000 -180 Descending Jacksonville Center
05:59PM 29.3392 -81.2322 201° Southwest 170 196 6,000 -180 Level Jacksonville Center
06:00PM 29.2936 -81.2519 205° Southwest 179 206 5,700 -600 Descending Jacksonville Center
06:01PM 29.2439 -81.2789 206° Southwest 189 217 4,900 -780 Descending Jacksonville Center
06:02PM 29.1961 -81.3061 203° Southwest 188 216 4,200 -480 Descending Jacksonville Center
06:03PM 29.1506 -81.3281 196° South 179 206 4,000 -120 Descending Jacksonville Center
06:05PM 29.0833 -81.3500 196° South 170 196 4,000  Level Orlando TRACON
06:06PM 29.0333 -81.3667 180° South 169 194 4,000  Level Orlando TRACON
06:07PM 28.9833 -81.3667 204° Southwest 175 201 4,000  Level Orlando TRACON
06:08PM 28.9500 -81.3833 210° Southwest 169 194 4,000  Level Orlando TRACON
06:09PM 28.9000 -81.4167 221° Southwest 170 196 4,000 -360 Level Orlando TRACON
06:10PM 28.8667 -81.4500 210° Southwest 185 213 3,300 -540 Descending Orlando TRACON
06:11PM 28.8167 -81.4833 221° Southwest 187 215 3,000 -180 Descending Orlando TRACON
06:12PM 28.7833 -81.5167 221° Southwest 174 200 3,000  Level Orlando TRACON
06:13PM 28.7500 -81.5500 180° South 169 194 3,000  Level Orlando TRACON
06:14PM 28.7000 -81.5500 180° South 164 189 3,000  Level Orlando TRACON
06:15PM 28.6500 -81.5500 180° South 167 192 3,000 -240 Level Orlando TRACON
06:16PM 28.6000 -81.5500 164° South 179 206 2,500 -540 Descending Orlando TRACON
06:17PM 28.5500 -81.5333 180° South 182 209 2,000 -300 Descending Orlando TRACON
06:18PM 28.5167 -81.5333 180° South 162 186 2,000  Level Orlando TRACON
06:19PM 28.4500 -81.5333 180° South 163 188 2,000  Level Orlando TRACON
06:20PM 28.4167 -81.5333 139° Southeast 146 168 2,000  Level Orlando TRACON
06:21PM 28.3833 -81.5000 156° South 124 143 2,000 -300 Level Orlando TRACON
06:22PM 28.3500 -81.4833 139° Southeast 142 163 1,400 -660 Descending Orlando TRACON
06:23PM 28.3333 -81.4667 139° Southeast 109 125 800 -600 Descending Orlando TRACON